sensor_id;sensor_type;location;lat;lon;timestamp;pressure;altitude;pressure_sealevel;temperature;humidity
37904;BME280;23738;50.422;18.758;2023-01-28T00:01:25;98941.39;;;-0.09;78.94
37904;BME280;23738;50.422;18.758;2023-01-28T00:03:53;98941.94;;;-0.12;78.76
37904;BME280;23738;50.422;18.758;2023-01-28T00:06:20;98938.48;;;-0.11;78.88
37904;BME280;23738;50.422;18.758;2023-01-28T00:08:47;98941.40;;;-0.09;78.94
37904;BME280;23738;50.422;18.758;2023-01-28T00:11:15;98936.02;;;-0.09;78.85
37904;BME280;23738;50.422;18.758;2023-01-28T00:13:42;98934.02;;;-0.08;78.88
37904;BME280;23738;50.422;18.758;2023-01-28T00:16:10;98931.41;;;-0.06;79.11
37904;BME280;23738;50.422;18.758;2023-01-28T00:18:37;98930.12;;;-0.04;79.20
37904;BME280;23738;50.422;18.758;2023-01-28T00:21:07;98933.80;;;-0.05;79.25
37904;BME280;23738;50.422;18.758;2023-01-28T00:23:35;98932.89;;;-0.07;79.17
37904;BME280;23738;50.422;18.758;2023-01-28T00:26:05;98937.52;;;-0.10;79.15
37904;BME280;23738;50.422;18.758;2023-01-28T00:28:33;98934.77;;;-0.13;79.08
37904;BME280;23738;50.422;18.758;2023-01-28T00:31:07;98933.91;;;-0.11;79.14
37904;BME280;23738;50.422;18.758;2023-01-28T00:33:35;98934.56;;;-0.06;79.33
37904;BME280;23738;50.422;18.758;2023-01-28T00:36:04;98936.58;;;0.02;79.28
37904;BME280;23738;50.422;18.758;2023-01-28T00:38:32;98932.58;;;0.07;79.44
37904;BME280;23738;50.422;18.758;2023-01-28T00:41:07;98931.34;;;0.04;79.29
37904;BME280;23738;50.422;18.758;2023-01-28T00:43:35;98934.02;;;0.01;79.33
37904;BME280;23738;50.422;18.758;2023-01-28T00:46:02;98937.55;;;-0.02;79.40
37904;BME280;23738;50.422;18.758;2023-01-28T00:48:30;98943.30;;;-0.07;79.23
37904;BME280;23738;50.422;18.758;2023-01-28T00:50:57;98940.56;;;-0.09;79.33
37904;BME280;23738;50.422;18.758;2023-01-28T00:53:25;98935.76;;;-0.10;79.38
37904;BME280;23738;50.422;18.758;2023-01-28T00:55:52;98936.19;;;-0.07;79.42
37904;BME280;23738;50.422;18.758;2023-01-28T00:58:20;98934.67;;;-0.07;79.23
37904;BME280;23738;50.422;18.758;2023-01-28T01:00:48;98933.61;;;-0.07;79.50
37904;BME280;23738;50.422;18.758;2023-01-28T01:03:15;98937.91;;;-0.07;79.49
37904;BME280;23738;50.422;18.758;2023-01-28T01:05:43;98933.39;;;-0.09;79.43
37904;BME280;23738;50.422;18.758;2023-01-28T01:08:10;98936.66;;;-0.13;79.36
37904;BME280;23738;50.422;18.758;2023-01-28T01:10:38;98940.23;;;-0.18;79.37
37904;BME280;23738;50.422;18.758;2023-01-28T01:13:06;98945.15;;;-0.21;79.40
37904;BME280;23738;50.422;18.758;2023-01-28T01:15:33;98942.86;;;-0.21;79.38
37904;BME280;23738;50.422;18.758;2023-01-28T01:18:01;98946.88;;;-0.19;79.32
37904;BME280;23738;50.422;18.758;2023-01-28T01:20:29;98949.20;;;-0.18;79.42
37904;BME280;23738;50.422;18.758;2023-01-28T01:22:59;98951.81;;;-0.18;79.48
37904;BME280;23738;50.422;18.758;2023-01-28T01:25:26;98955.52;;;-0.17;79.67
37904;BME280;23738;50.422;18.758;2023-01-28T01:27:53;98954.49;;;-0.17;79.38
37904;BME280;23738;50.422;18.758;2023-01-28T01:30:20;98950.98;;;-0.20;79.44
37904;BME280;23738;50.422;18.758;2023-01-28T01:32:48;98950.52;;;-0.23;79.42
37904;BME280;23738;50.422;18.758;2023-01-28T01:35:15;98951.95;;;-0.26;79.36
37904;BME280;23738;50.422;18.758;2023-01-28T01:37:44;98953.10;;;-0.25;79.46
37904;BME280;23738;50.422;18.758;2023-01-28T01:40:12;98950.84;;;-0.21;79.53
37904;BME280;23738;50.422;18.758;2023-01-28T01:42:39;98956.51;;;-0.18;79.47
37904;BME280;23738;50.422;18.758;2023-01-28T01:45:12;98958.75;;;-0.18;79.52
37904;BME280;23738;50.422;18.758;2023-01-28T01:47:43;98961.39;;;-0.21;79.48
37904;BME280;23738;50.422;18.758;2023-01-28T01:50:18;98964.84;;;-0.23;79.40
37904;BME280;23738;50.422;18.758;2023-01-28T01:52:51;98961.11;;;-0.26;79.48
37904;BME280;23738;50.422;18.758;2023-01-28T01:55:22;98960.55;;;-0.30;79.57
37904;BME280;23738;50.422;18.758;2023-01-28T01:57:52;98965.19;;;-0.34;79.31
37904;BME280;23738;50.422;18.758;2023-01-28T02:00:21;98965.72;;;-0.36;79.21
37904;BME280;23738;50.422;18.758;2023-01-28T02:02:49;98966.88;;;-0.40;79.22
37904;BME280;23738;50.422;18.758;2023-01-28T02:05:19;98966.70;;;-0.42;79.16
37904;BME280;23738;50.422;18.758;2023-01-28T02:07:49;98962.84;;;-0.43;79.03
37904;BME280;23738;50.422;18.758;2023-01-28T02:10:18;98961.14;;;-0.46;78.91
37904;BME280;23738;50.422;18.758;2023-01-28T02:12:48;98960.80;;;-0.50;78.91
37904;BME280;23738;50.422;18.758;2023-01-28T02:15:18;98957.54;;;-0.53;78.83
37904;BME280;23738;50.422;18.758;2023-01-28T02:17:48;98962.20;;;-0.55;78.83
37904;BME280;23738;50.422;18.758;2023-01-28T02:20:20;98964.64;;;-0.57;78.87
37904;BME280;23738;50.422;18.758;2023-01-28T02:23:03;98965.83;;;-0.57;78.94
37904;BME280;23738;50.422;18.758;2023-01-28T02:26:02;98968.10;;;-0.55;78.97
37904;BME280;23738;50.422;18.758;2023-01-28T02:28:37;98971.02;;;-0.55;78.77
37904;BME280;23738;50.422;18.758;2023-01-28T02:31:10;98975.15;;;-0.57;78.86
37904;BME280;23738;50.422;18.758;2023-01-28T02:33:43;98976.66;;;-0.56;78.97
37904;BME280;23738;50.422;18.758;2023-01-28T02:36:20;98978.24;;;-0.59;78.80
37904;BME280;23738;50.422;18.758;2023-01-28T02:38:50;98981.54;;;-0.63;78.79
37904;BME280;23738;50.422;18.758;2023-01-28T02:41:22;98978.84;;;-0.66;78.51
37904;BME280;23738;50.422;18.758;2023-01-28T02:43:51;98978.76;;;-0.67;78.69
37904;BME280;23738;50.422;18.758;2023-01-28T02:46:21;98984.99;;;-0.65;78.67
37904;BME280;23738;50.422;18.758;2023-01-28T02:49:22;98985.18;;;-0.66;78.44
37904;BME280;23738;50.422;18.758;2023-01-28T02:52:23;98992.81;;;-0.68;78.59
37904;BME280;23738;50.422;18.758;2023-01-28T02:55:13;98984.77;;;-0.74;78.57
37904;BME280;23738;50.422;18.758;2023-01-28T02:57:43;98990.63;;;-0.73;78.57
37904;BME280;23738;50.422;18.758;2023-01-28T03:00:17;98993.82;;;-0.77;78.36
37904;BME280;23738;50.422;18.758;2023-01-28T03:02:52;98995.59;;;-0.80;78.33
37904;BME280;23738;50.422;18.758;2023-01-28T03:05:24;98992.69;;;-0.83;78.49
37904;BME280;23738;50.422;18.758;2023-01-28T03:07:53;98995.13;;;-0.85;78.40
37904;BME280;23738;50.422;18.758;2023-01-28T03:10:23;98992.00;;;-0.85;78.39
37904;BME280;23738;50.422;18.758;2023-01-28T03:12:54;98997.83;;;-0.82;78.47
37904;BME280;23738;50.422;18.758;2023-01-28T03:15:44;99001.65;;;-0.82;78.19
37904;BME280;23738;50.422;18.758;2023-01-28T03:18:35;99004.07;;;-0.85;78.11
37904;BME280;23738;50.422;18.758;2023-01-28T03:21:26;99002.36;;;-0.87;78.14
37904;BME280;23738;50.422;18.758;2023-01-28T03:24:17;99003.15;;;-0.88;78.00
37904;BME280;23738;50.422;18.758;2023-01-28T03:27:09;99001.99;;;-0.91;78.05
37904;BME280;23738;50.422;18.758;2023-01-28T03:30:01;99004.10;;;-0.94;78.02
37904;BME280;23738;50.422;18.758;2023-01-28T03:32:48;99007.23;;;-0.90;78.20
37904;BME280;23738;50.422;18.758;2023-01-28T03:35:35;99004.34;;;-0.86;78.01
37904;BME280;23738;50.422;18.758;2023-01-28T03:38:21;99006.30;;;-0.87;77.92
37904;BME280;23738;50.422;18.758;2023-01-28T03:40:50;99004.48;;;-0.88;77.95
37904;BME280;23738;50.422;18.758;2023-01-28T03:43:18;99005.26;;;-0.86;77.99
37904;BME280;23738;50.422;18.758;2023-01-28T03:45:45;99002.24;;;-0.88;78.00
37904;BME280;23738;50.422;18.758;2023-01-28T03:48:17;98998.93;;;-0.89;77.98
37904;BME280;23738;50.422;18.758;2023-01-28T03:50:44;99001.06;;;-0.93;77.85
37904;BME280;23738;50.422;18.758;2023-01-28T03:53:11;99003.95;;;-0.96;77.66
37904;BME280;23738;50.422;18.758;2023-01-28T03:55:39;99007.42;;;-0.95;77.90
37904;BME280;23738;50.422;18.758;2023-01-28T03:58:07;99002.66;;;-0.91;77.84
37904;BME280;23738;50.422;18.758;2023-01-28T04:00:34;99003.11;;;-0.90;77.66
37904;BME280;23738;50.422;18.758;2023-01-28T04:03:04;99001.10;;;-0.91;77.72
37904;BME280;23738;50.422;18.758;2023-01-28T04:05:42;99006.23;;;-0.92;77.81
37904;BME280;23738;50.422;18.758;2023-01-28T04:08:10;99006.67;;;-0.94;77.67
37904;BME280;23738;50.422;18.758;2023-01-28T04:10:38;99006.92;;;-0.95;77.53
37904;BME280;23738;50.422;18.758;2023-01-28T04:13:06;99009.87;;;-0.97;77.60
37904;BME280;23738;50.422;18.758;2023-01-28T04:15:33;99008.27;;;-0.99;77.50
37904;BME280;23738;50.422;18.758;2023-01-28T04:18:02;99006.59;;;-1.02;77.55
37904;BME280;23738;50.422;18.758;2023-01-28T04:20:29;99008.18;;;-1.04;77.55
37904;BME280;23738;50.422;18.758;2023-01-28T04:22:56;99004.10;;;-1.10;77.37
37904;BME280;23738;50.422;18.758;2023-01-28T04:25:24;99008.38;;;-1.04;77.52
37904;BME280;23738;50.422;18.758;2023-01-28T04:27:51;99012.60;;;-1.01;77.38
37904;BME280;23738;50.422;18.758;2023-01-28T04:30:18;99010.73;;;-0.99;77.31
37904;BME280;23738;50.422;18.758;2023-01-28T04:32:46;99009.06;;;-0.98;77.39
37904;BME280;23738;50.422;18.758;2023-01-28T04:35:16;99012.89;;;-0.96;77.36
37904;BME280;23738;50.422;18.758;2023-01-28T04:37:44;99011.55;;;-0.96;77.28
37904;BME280;23738;50.422;18.758;2023-01-28T04:40:12;99010.36;;;-0.99;77.24
37904;BME280;23738;50.422;18.758;2023-01-28T04:42:39;99007.87;;;-1.00;77.25
37904;BME280;23738;50.422;18.758;2023-01-28T04:45:08;99009.27;;;-1.03;77.29
37904;BME280;23738;50.422;18.758;2023-01-28T04:47:36;99010.99;;;-1.03;77.35
37904;BME280;23738;50.422;18.758;2023-01-28T04:50:04;99008.48;;;-1.04;77.13
37904;BME280;23738;50.422;18.758;2023-01-28T04:52:31;99011.60;;;-1.06;77.28
37904;BME280;23738;50.422;18.758;2023-01-28T04:54:58;99013.77;;;-1.07;77.27
37904;BME280;23738;50.422;18.758;2023-01-28T04:57:26;99014.02;;;-1.06;77.21
37904;BME280;23738;50.422;18.758;2023-01-28T04:59:53;99009.73;;;-1.02;77.10
37904;BME280;23738;50.422;18.758;2023-01-28T05:02:21;99003.11;;;-0.99;77.07
37904;BME280;23738;50.422;18.758;2023-01-28T05:04:48;99011.33;;;-0.98;77.18
37904;BME280;23738;50.422;18.758;2023-01-28T05:07:16;99008.88;;;-0.97;77.26
37904;BME280;23738;50.422;18.758;2023-01-28T05:09:43;99010.30;;;-0.96;77.26
37904;BME280;23738;50.422;18.758;2023-01-28T05:12:10;99014.59;;;-0.95;77.15
37904;BME280;23738;50.422;18.758;2023-01-28T05:14:37;99013.48;;;-0.99;76.96
37904;BME280;23738;50.422;18.758;2023-01-28T05:17:04;99019.63;;;-1.00;77.09
37904;BME280;23738;50.422;18.758;2023-01-28T05:19:32;99017.97;;;-1.06;77.02
37904;BME280;23738;50.422;18.758;2023-01-28T05:21:59;99020.33;;;-1.05;76.99
37904;BME280;23738;50.422;18.758;2023-01-28T05:24:26;99020.77;;;-1.04;77.03
37904;BME280;23738;50.422;18.758;2023-01-28T05:26:53;99027.89;;;-0.97;77.04
37904;BME280;23738;50.422;18.758;2023-01-28T05:29:21;99026.14;;;-0.95;77.12
37904;BME280;23738;50.422;18.758;2023-01-28T05:31:48;99032.02;;;-0.93;77.02
37904;BME280;23738;50.422;18.758;2023-01-28T05:34:15;99039.64;;;-0.93;76.94
37904;BME280;23738;50.422;18.758;2023-01-28T05:36:43;99044.51;;;-0.96;76.91
37904;BME280;23738;50.422;18.758;2023-01-28T05:39:10;99041.94;;;-0.98;76.98
37904;BME280;23738;50.422;18.758;2023-01-28T05:41:37;99042.48;;;-1.00;77.01
37904;BME280;23738;50.422;18.758;2023-01-28T05:44:05;99039.92;;;-1.03;76.95
37904;BME280;23738;50.422;18.758;2023-01-28T05:46:32;99043.54;;;-1.05;77.14
37904;BME280;23738;50.422;18.758;2023-01-28T05:48:59;99049.53;;;-1.07;76.86
37904;BME280;23738;50.422;18.758;2023-01-28T05:51:26;99038.45;;;-1.14;76.96
37904;BME280;23738;50.422;18.758;2023-01-28T05:53:53;99052.83;;;-1.07;76.85
37904;BME280;23738;50.422;18.758;2023-01-28T05:56:21;99045.77;;;-1.07;77.05
37904;BME280;23738;50.422;18.758;2023-01-28T05:58:48;99052.42;;;-1.02;76.86
37904;BME280;23738;50.422;18.758;2023-01-28T06:01:15;99057.56;;;-1.01;76.85
37904;BME280;23738;50.422;18.758;2023-01-28T06:03:42;99052.14;;;-1.00;76.99
37904;BME280;23738;50.422;18.758;2023-01-28T06:06:10;99058.72;;;-1.03;76.60
37904;BME280;23738;50.422;18.758;2023-01-28T06:08:37;99065.63;;;-1.07;76.52
37904;BME280;23738;50.422;18.758;2023-01-28T06:11:04;99066.75;;;-1.13;76.61
37904;BME280;23738;50.422;18.758;2023-01-28T06:13:31;99071.13;;;-1.16;76.49
37904;BME280;23738;50.422;18.758;2023-01-28T06:15:59;99067.52;;;-1.19;76.61
37904;BME280;23738;50.422;18.758;2023-01-28T06:18:26;99077.01;;;-1.17;76.54
37904;BME280;23738;50.422;18.758;2023-01-28T06:20:53;99076.25;;;-1.15;76.62
37904;BME280;23738;50.422;18.758;2023-01-28T06:23:20;99079.59;;;-1.12;76.66
37904;BME280;23738;50.422;18.758;2023-01-28T06:25:53;99082.10;;;-1.08;76.65
37904;BME280;23738;50.422;18.758;2023-01-28T06:28:20;99084.55;;;-1.06;76.85
37904;BME280;23738;50.422;18.758;2023-01-28T06:30:48;99085.38;;;-1.05;76.71
37904;BME280;23738;50.422;18.758;2023-01-28T06:33:16;99083.63;;;-1.05;76.79
37904;BME280;23738;50.422;18.758;2023-01-28T06:35:43;99079.86;;;-1.08;76.55
37904;BME280;23738;50.422;18.758;2023-01-28T06:38:10;99081.98;;;-1.11;76.64
37904;BME280;23738;50.422;18.758;2023-01-28T06:40:38;99080.91;;;-1.13;76.53
37904;BME280;23738;50.422;18.758;2023-01-28T06:43:05;99078.61;;;-1.17;76.37
37904;BME280;23738;50.422;18.758;2023-01-28T06:45:33;99081.73;;;-1.20;76.52
37904;BME280;23738;50.422;18.758;2023-01-28T06:48:00;99082.67;;;-1.18;76.55
37904;BME280;23738;50.422;18.758;2023-01-28T06:50:27;99080.23;;;-1.16;76.50
37904;BME280;23738;50.422;18.758;2023-01-28T06:52:54;99079.98;;;-1.12;76.44
37904;BME280;23738;50.422;18.758;2023-01-28T06:55:21;99082.05;;;-1.10;76.66
37904;BME280;23738;50.422;18.758;2023-01-28T06:57:49;99084.23;;;-1.06;76.57
37904;BME280;23738;50.422;18.758;2023-01-28T07:00:18;99082.33;;;-1.06;76.49
37904;BME280;23738;50.422;18.758;2023-01-28T07:02:45;99087.58;;;-1.05;76.57
37904;BME280;23738;50.422;18.758;2023-01-28T07:05:13;99089.23;;;-1.06;76.36
37904;BME280;23738;50.422;18.758;2023-01-28T07:07:40;99095.27;;;-1.08;76.38
37904;BME280;23738;50.422;18.758;2023-01-28T07:10:10;99090.25;;;-1.11;76.27
37904;BME280;23738;50.422;18.758;2023-01-28T07:12:37;99093.20;;;-1.13;76.45
37904;BME280;23738;50.422;18.758;2023-01-28T07:15:07;99094.77;;;-1.13;76.37
37904;BME280;23738;50.422;18.758;2023-01-28T07:17:38;99100.34;;;-1.09;76.44
37904;BME280;23738;50.422;18.758;2023-01-28T07:20:11;99107.17;;;-1.04;76.36
37904;BME280;23738;50.422;18.758;2023-01-28T07:22:40;99110.61;;;-0.98;76.47
37904;BME280;23738;50.422;18.758;2023-01-28T07:25:09;99114.55;;;-0.94;76.57
37904;BME280;23738;50.422;18.758;2023-01-28T07:27:37;99118.81;;;-0.90;76.57
37904;BME280;23738;50.422;18.758;2023-01-28T07:30:06;99123.34;;;-0.88;76.45
37904;BME280;23738;50.422;18.758;2023-01-28T07:32:33;99131.04;;;-0.87;76.44
37904;BME280;23738;50.422;18.758;2023-01-28T07:35:00;99131.81;;;-0.88;76.42
37904;BME280;23738;50.422;18.758;2023-01-28T07:37:27;99132.98;;;-0.88;76.27
37904;BME280;23738;50.422;18.758;2023-01-28T07:39:55;99134.04;;;-0.88;76.28
37904;BME280;23738;50.422;18.758;2023-01-28T07:42:22;99136.87;;;-0.87;76.51
37904;BME280;23738;50.422;18.758;2023-01-28T07:44:50;99135.73;;;-0.85;76.50
37904;BME280;23738;50.422;18.758;2023-01-28T07:47:18;99137.95;;;-0.83;76.45
37904;BME280;23738;50.422;18.758;2023-01-28T07:49:46;99132.31;;;-0.84;76.36
37904;BME280;23738;50.422;18.758;2023-01-28T07:52:13;99136.84;;;-0.79;76.40
37904;BME280;23738;50.422;18.758;2023-01-28T07:54:41;99145.52;;;-0.68;76.27
37904;BME280;23738;50.422;18.758;2023-01-28T07:57:09;99149.15;;;-0.61;76.38
37904;BME280;23738;50.422;18.758;2023-01-28T07:59:36;99151.38;;;-0.56;76.25
37904;BME280;23738;50.422;18.758;2023-01-28T08:02:04;99149.56;;;-0.55;76.11
37904;BME280;23738;50.422;18.758;2023-01-28T08:04:32;99159.50;;;-0.56;76.31
37904;BME280;23738;50.422;18.758;2023-01-28T08:07:00;99158.29;;;-0.54;76.30
37904;BME280;23738;50.422;18.758;2023-01-28T08:09:27;99153.80;;;-0.54;76.22
37904;BME280;23738;50.422;18.758;2023-01-28T08:11:55;99156.10;;;-0.52;76.10
37904;BME280;23738;50.422;18.758;2023-01-28T08:14:22;99157.75;;;-0.53;76.30
37904;BME280;23738;50.422;18.758;2023-01-28T08:16:49;99160.36;;;-0.54;76.25
37904;BME280;23738;50.422;18.758;2023-01-28T08:19:16;99157.86;;;-0.55;76.14
37904;BME280;23738;50.422;18.758;2023-01-28T08:21:46;99161.38;;;-0.53;76.27
37904;BME280;23738;50.422;18.758;2023-01-28T08:24:14;99162.07;;;-0.46;76.31
37904;BME280;23738;50.422;18.758;2023-01-28T08:26:41;99159.87;;;-0.40;76.12
37904;BME280;23738;50.422;18.758;2023-01-28T08:29:08;99158.27;;;-0.35;76.21
37904;BME280;23738;50.422;18.758;2023-01-28T08:31:36;99155.52;;;-0.31;76.23
37904;BME280;23738;50.422;18.758;2023-01-28T08:34:03;99156.74;;;-0.29;76.18
37904;BME280;23738;50.422;18.758;2023-01-28T08:36:30;99161.98;;;-0.27;76.34
37904;BME280;23738;50.422;18.758;2023-01-28T08:38:57;99159.19;;;-0.27;76.13
37904;BME280;23738;50.422;18.758;2023-01-28T08:41:24;99156.45;;;-0.25;76.12
37904;BME280;23738;50.422;18.758;2023-01-28T08:43:51;99156.23;;;-0.24;76.02
37904;BME280;23738;50.422;18.758;2023-01-28T08:46:19;99153.82;;;-0.22;76.15
37904;BME280;23738;50.422;18.758;2023-01-28T08:48:46;99155.27;;;-0.16;76.09
37904;BME280;23738;50.422;18.758;2023-01-28T08:51:15;99158.48;;;-0.06;76.18
37904;BME280;23738;50.422;18.758;2023-01-28T08:53:42;99154.34;;;0.07;76.12
37904;BME280;23738;50.422;18.758;2023-01-28T08:56:09;99151.77;;;0.18;76.02
37904;BME280;23738;50.422;18.758;2023-01-28T08:58:36;99153.52;;;0.27;76.00
37904;BME280;23738;50.422;18.758;2023-01-28T09:01:05;99151.90;;;0.36;76.14
37904;BME280;23738;50.422;18.758;2023-01-28T09:03:32;99153.25;;;0.43;76.05
37904;BME280;23738;50.422;18.758;2023-01-28T09:06:03;99157.94;;;0.49;75.98
37904;BME280;23738;50.422;18.758;2023-01-28T09:08:31;99164.45;;;0.53;76.02
37904;BME280;23738;50.422;18.758;2023-01-28T09:10:59;99166.96;;;0.56;75.86
37904;BME280;23738;50.422;18.758;2023-01-28T09:13:27;99167.43;;;0.59;75.89
37904;BME280;23738;50.422;18.758;2023-01-28T09:15:54;99174.73;;;0.63;76.10
37904;BME280;23738;50.422;18.758;2023-01-28T09:18:22;99179.33;;;0.66;75.84
37904;BME280;23738;50.422;18.758;2023-01-28T09:20:49;99179.55;;;0.68;75.83
37904;BME280;23738;50.422;18.758;2023-01-28T09:23:16;99183.45;;;0.73;75.82
37904;BME280;23738;50.422;18.758;2023-01-28T09:25:43;99182.31;;;0.79;75.84
37904;BME280;23738;50.422;18.758;2023-01-28T09:28:10;99186.50;;;0.83;75.61
37904;BME280;23738;50.422;18.758;2023-01-28T09:30:38;99182.04;;;0.85;75.59
37904;BME280;23738;50.422;18.758;2023-01-28T09:33:05;99183.66;;;0.88;75.76
37904;BME280;23738;50.422;18.758;2023-01-28T09:35:33;99186.88;;;0.97;75.55
37904;BME280;23738;50.422;18.758;2023-01-28T09:38:01;99185.09;;;1.06;75.64
37904;BME280;23738;50.422;18.758;2023-01-28T09:40:33;99186.65;;;1.13;75.58
37904;BME280;23738;50.422;18.758;2023-01-28T09:43:22;99181.70;;;1.16;75.09
37904;BME280;23738;50.422;18.758;2023-01-28T09:45:55;99184.73;;;1.20;75.43
37904;BME280;23738;50.422;18.758;2023-01-28T09:48:27;99183.27;;;1.25;75.32
37904;BME280;23738;50.422;18.758;2023-01-28T09:50:56;99183.05;;;1.29;75.69
37904;BME280;23738;50.422;18.758;2023-01-28T09:53:28;99181.06;;;1.35;75.32
37904;BME280;23738;50.422;18.758;2023-01-28T09:55:59;99179.48;;;1.39;75.73
37904;BME280;23738;50.422;18.758;2023-01-28T09:58:27;99182.77;;;1.45;75.61
37904;BME280;23738;50.422;18.758;2023-01-28T10:00:59;99179.56;;;1.48;75.33
37904;BME280;23738;50.422;18.758;2023-01-28T10:03:46;99169.80;;;1.53;75.45
37904;BME280;23738;50.422;18.758;2023-01-28T10:06:23;99167.23;;;1.63;75.35
37904;BME280;23738;50.422;18.758;2023-01-28T10:09:18;99169.27;;;1.70;75.31
37904;BME280;23738;50.422;18.758;2023-01-28T10:12:12;99170.41;;;1.73;75.09
37904;BME280;23738;50.422;18.758;2023-01-28T10:15:01;99169.20;;;1.79;74.90
37904;BME280;23738;50.422;18.758;2023-01-28T10:17:38;99165.79;;;1.78;75.02
37904;BME280;23738;50.422;18.758;2023-01-28T10:20:17;99170.98;;;1.84;75.10
37904;BME280;23738;50.422;18.758;2023-01-28T10:22:50;99168.32;;;1.87;75.16
37904;BME280;23738;50.422;18.758;2023-01-28T10:25:21;99169.50;;;1.90;74.94
37904;BME280;23738;50.422;18.758;2023-01-28T10:27:50;99165.06;;;1.91;75.09
37904;BME280;23738;50.422;18.758;2023-01-28T10:30:22;99166.77;;;1.91;75.03
37904;BME280;23738;50.422;18.758;2023-01-28T10:32:52;99165.49;;;1.94;75.02
37904;BME280;23738;50.422;18.758;2023-01-28T10:35:20;99163.77;;;1.98;75.03
37904;BME280;23738;50.422;18.758;2023-01-28T10:37:48;99158.50;;;2.01;74.80
37904;BME280;23738;50.422;18.758;2023-01-28T10:40:16;99161.91;;;2.07;74.54
37904;BME280;23738;50.422;18.758;2023-01-28T10:42:44;99161.63;;;2.15;74.31
37904;BME280;23738;50.422;18.758;2023-01-28T10:45:17;99155.56;;;2.22;74.77
37904;BME280;23738;50.422;18.758;2023-01-28T10:47:49;99158.56;;;2.30;74.98
37904;BME280;23738;50.422;18.758;2023-01-28T10:50:22;99158.25;;;2.36;74.69
37904;BME280;23738;50.422;18.758;2023-01-28T10:52:55;99160.88;;;2.40;74.89
37904;BME280;23738;50.422;18.758;2023-01-28T10:55:23;99161.95;;;2.41;74.72
37904;BME280;23738;50.422;18.758;2023-01-28T10:57:53;99161.22;;;2.38;74.52
37904;BME280;23738;50.422;18.758;2023-01-28T11:00:26;99160.46;;;2.35;74.47
37904;BME280;23738;50.422;18.758;2023-01-28T11:02:56;99159.59;;;2.37;74.75
37904;BME280;23738;50.422;18.758;2023-01-28T11:05:25;99154.24;;;2.38;74.82
37904;BME280;23738;50.422;18.758;2023-01-28T11:08:05;99158.74;;;2.46;74.76
37904;BME280;23738;50.422;18.758;2023-01-28T11:10:35;99162.71;;;2.47;74.56
37904;BME280;23738;50.422;18.758;2023-01-28T11:13:04;99163.15;;;2.46;74.89
37904;BME280;23738;50.422;18.758;2023-01-28T11:15:32;99160.31;;;2.48;74.57
37904;BME280;23738;50.422;18.758;2023-01-28T11:18:02;99160.15;;;2.50;74.38
37904;BME280;23738;50.422;18.758;2023-01-28T11:20:36;99158.85;;;2.47;74.38
37904;BME280;23738;50.422;18.758;2023-01-28T11:23:04;99154.52;;;2.45;74.23
37904;BME280;23738;50.422;18.758;2023-01-28T11:25:33;99154.27;;;2.44;74.22
37904;BME280;23738;50.422;18.758;2023-01-28T11:28:03;99151.89;;;2.39;74.35
37904;BME280;23738;50.422;18.758;2023-01-28T11:30:33;99150.62;;;2.33;74.13
37904;BME280;23738;50.422;18.758;2023-01-28T11:33:06;99150.23;;;2.30;74.18
37904;BME280;23738;50.422;18.758;2023-01-28T11:35:39;99145.77;;;2.25;74.16
37904;BME280;23738;50.422;18.758;2023-01-28T11:38:17;99142.34;;;2.26;74.31
37904;BME280;23738;50.422;18.758;2023-01-28T11:40:50;99142.20;;;2.33;74.34
37904;BME280;23738;50.422;18.758;2023-01-28T11:43:20;99142.77;;;2.36;74.49
37904;BME280;23738;50.422;18.758;2023-01-28T11:45:54;99139.84;;;2.40;74.16
37904;BME280;23738;50.422;18.758;2023-01-28T11:48:31;99138.30;;;2.40;73.67
37904;BME280;23738;50.422;18.758;2023-01-28T11:51:05;99138.86;;;2.39;74.00
37904;BME280;23738;50.422;18.758;2023-01-28T11:54:01;99143.07;;;2.45;74.09
37904;BME280;23738;50.422;18.758;2023-01-28T11:56:50;99139.23;;;2.51;74.18
37904;BME280;23738;50.422;18.758;2023-01-28T11:59:40;99141.52;;;2.54;74.02
37904;BME280;23738;50.422;18.758;2023-01-28T12:02:24;99139.02;;;2.53;73.78
37904;BME280;23738;50.422;18.758;2023-01-28T12:05:05;99138.20;;;2.44;73.67
37904;BME280;23738;50.422;18.758;2023-01-28T12:07:42;99141.50;;;2.39;73.93
37904;BME280;23738;50.422;18.758;2023-01-28T12:10:12;99142.41;;;2.36;73.69
37904;BME280;23738;50.422;18.758;2023-01-28T12:12:53;99136.98;;;2.33;73.98
37904;BME280;23738;50.422;18.758;2023-01-28T12:15:39;99136.79;;;2.30;74.03
37904;BME280;23738;50.422;18.758;2023-01-28T12:18:24;99137.38;;;2.26;73.79
37904;BME280;23738;50.422;18.758;2023-01-28T12:21:03;99136.93;;;2.25;73.88
37904;BME280;23738;50.422;18.758;2023-01-28T12:23:42;99137.56;;;2.22;73.96
37904;BME280;23738;50.422;18.758;2023-01-28T12:26:16;99136.55;;;2.21;73.92
37904;BME280;23738;50.422;18.758;2023-01-28T12:28:59;99147.64;;;2.26;73.77
37904;BME280;23738;50.422;18.758;2023-01-28T12:31:40;99146.48;;;2.25;73.49
37904;BME280;23738;50.422;18.758;2023-01-28T12:34:52;99145.97;;;2.19;73.52
37904;BME280;23738;50.422;18.758;2023-01-28T12:37:31;99149.68;;;2.08;73.13
37904;BME280;23738;50.422;18.758;2023-01-28T12:40:16;99155.88;;;2.03;73.24
37904;BME280;23738;50.422;18.758;2023-01-28T12:42:50;99156.74;;;2.01;73.47
37904;BME280;23738;50.422;18.758;2023-01-28T12:45:24;99153.89;;;1.98;73.71
37904;BME280;23738;50.422;18.758;2023-01-28T12:47:57;99156.64;;;2.00;73.39
37904;BME280;23738;50.422;18.758;2023-01-28T12:50:30;99155.84;;;1.97;73.31
37904;BME280;23738;50.422;18.758;2023-01-28T12:53:04;99153.17;;;1.94;73.50
37904;BME280;23738;50.422;18.758;2023-01-28T12:55:42;99163.14;;;1.93;73.46
37904;BME280;23738;50.422;18.758;2023-01-28T12:58:16;99161.06;;;1.91;73.57
37904;BME280;23738;50.422;18.758;2023-01-28T13:00:49;99156.66;;;1.87;73.10
37904;BME280;23738;50.422;18.758;2023-01-28T13:03:20;99156.44;;;1.80;73.27
37904;BME280;23738;50.422;18.758;2023-01-28T13:05:53;99159.73;;;1.80;73.23
37904;BME280;23738;50.422;18.758;2023-01-28T13:08:23;99161.60;;;1.79;73.14
37904;BME280;23738;50.422;18.758;2023-01-28T13:10:51;99158.99;;;1.78;73.40
37904;BME280;23738;50.422;18.758;2023-01-28T13:13:26;99163.11;;;1.81;73.38